createdAt,value
2022-10-17T00:39:22.819Z,17.06
2022-10-17T00:41:50.775Z,17.80
2022-10-17T00:44:59.994Z,17.45
2022-10-17T00:47:27.955Z,17.69
2022-10-17T00:49:56.173Z,17.66
2022-10-17T00:52:31.671Z,18.11
2022-10-17T00:55:03.623Z,18.31
2022-10-17T00:57:34.079Z,18.79
2022-10-17T01:00:06.722Z,18.99
2022-10-17T01:02:36.748Z,19.37
2022-10-17T01:05:06.272Z,19.26
2022-10-17T01:07:37.379Z,19.45
2022-10-17T01:10:09.659Z,19.73
2022-10-17T01:12:47.813Z,19.94
2022-10-17T01:15:30.678Z,20.13
2022-10-17T01:18:10.350Z,20.06
2022-10-17T01:21:27.381Z,16.04
2022-10-17T01:24:46.558Z,17.58
2022-10-17T01:27:39.358Z,17.44
2022-10-17T01:30:26.003Z,18.11
2022-10-17T01:33:00.204Z,18.36
2022-10-17T01:35:34.035Z,17.14
2022-10-17T01:38:09.115Z,15.63
2022-10-17T01:40:43.348Z,15.67
2022-10-17T01:43:17.689Z,15.26
2022-10-17T01:45:51.375Z,15.36
2022-10-17T01:48:26.505Z,15.78
2022-10-17T01:51:00.951Z,15.55
2022-10-17T01:53:35.326Z,15.16
2022-10-17T01:56:08.315Z,15.38
2022-10-17T01:58:42.466Z,15.49
2022-10-17T02:01:13.352Z,15.58
2022-10-17T02:03:46.566Z,15.35
2022-10-17T02:06:15.957Z,15.43
2022-10-17T02:08:46.815Z,15.17
2022-10-17T02:11:18.269Z,15.60
2022-10-17T02:14:04.719Z,15.53
2022-10-17T02:16:39.917Z,15.38
2022-10-17T02:19:27.426Z,15.37
2022-10-17T02:22:05.860Z,15.59
2022-10-17T02:24:42.819Z,17.74
2022-10-17T02:27:18.574Z,17.35
2022-10-17T02:29:50.221Z,17.04
2022-10-17T02:32:25.885Z,17.03
2022-10-17T02:34:57.585Z,17.97
2022-10-17T02:37:32.416Z,17.57
2022-10-17T02:40:03.468Z,15.73
2022-10-17T02:42:34.156Z,17.24
2022-10-17T02:45:06.225Z,17.28
2022-10-17T02:47:39.525Z,18.29
2022-10-17T02:50:10.587Z,18.74
2022-10-17T02:52:47.599Z,18.36
2022-10-17T02:55:21.526Z,18.29
2022-10-17T02:57:54.015Z,18.53
2022-10-17T03:00:23.698Z,18.96
2022-10-17T03:02:53.956Z,18.68
2022-10-17T03:05:25.904Z,19.26
2022-10-17T03:07:54.488Z,19.04
2022-10-17T03:10:23.232Z,19.15
2022-10-17T03:12:51.262Z,19.17
2022-10-17T03:15:20.042Z,19.28
2022-10-17T03:17:48.453Z,19.17
2022-10-17T03:20:18.231Z,19.62
2022-10-17T03:22:49.190Z,19.78
2022-10-17T03:25:19.572Z,19.39
2022-10-17T03:27:49.819Z,19.40
2022-10-17T03:30:19.378Z,19.50
2022-10-17T03:32:47.420Z,19.80
2022-10-17T03:35:16.000Z,19.84
2022-10-17T03:37:50.293Z,20.08
2022-10-17T03:40:20.786Z,20.06
2022-10-17T03:42:48.912Z,19.96
2022-10-17T03:45:17.424Z,20.23
2022-10-17T03:47:46.862Z,20.15
2022-10-17T03:50:16.096Z,20.26
2022-10-17T03:52:49.298Z,20.36
2022-10-17T03:55:18.131Z,16.44
2022-10-17T03:57:46.074Z,16.32
2022-10-17T04:00:16.848Z,15.88
2022-10-17T04:02:53.660Z,15.90
2022-10-17T04:05:21.773Z,17.97
2022-10-17T04:07:51.396Z,18.61
2022-10-17T04:10:23.849Z,19.07
2022-10-17T04:12:52.604Z,19.48
2022-10-17T04:15:20.677Z,17.47
2022-10-17T04:17:49.910Z,16.90
2022-10-17T04:20:18.635Z,16.78
2022-10-17T04:22:48.086Z,16.74
2022-10-17T04:25:17.678Z,16.72
2022-10-17T04:27:49.066Z,16.95
2022-10-17T04:30:17.914Z,17.00
2022-10-17T04:32:46.705Z,17.70
2022-10-17T04:35:20.724Z,18.75
2022-10-17T04:37:54.983Z,18.96
2022-10-17T04:40:24.402Z,18.81
2022-10-17T04:42:54.376Z,19.37
2022-10-17T04:45:28.612Z,17.08
2022-10-17T04:48:01.295Z,16.89
2022-10-17T04:50:29.656Z,16.65
2022-10-17T04:53:17.921Z,16.56
2022-10-17T04:55:47.522Z,16.70
2022-10-17T04:58:15.868Z,16.73
2022-10-17T05:00:44.264Z,16.97
2022-10-17T05:03:21.658Z,16.97
2022-10-17T05:05:49.706Z,17.54
2022-10-17T05:08:17.713Z,17.55
2022-10-17T05:10:47.354Z,17.64
2022-10-17T05:13:15.895Z,17.54
2022-10-17T05:15:43.898Z,17.34
2022-10-17T05:18:13.657Z,17.30
2022-10-17T05:20:43.603Z,17.15
2022-10-17T05:23:12.001Z,17.55
2022-10-17T05:25:43.728Z,18.55
2022-10-17T05:28:14.159Z,18.98
2022-10-17T05:30:43.732Z,17.60
2022-10-17T05:33:11.733Z,17.72
2022-10-17T05:35:40.090Z,17.98
2022-10-17T05:38:08.913Z,17.73
2022-10-17T05:40:40.493Z,17.69
2022-10-17T05:43:09.142Z,17.81
2022-10-17T05:45:39.757Z,17.92
2022-10-17T05:48:11.535Z,19.08
2022-10-17T05:50:39.602Z,19.52
2022-10-17T05:53:15.029Z,19.59
2022-10-17T05:55:48.143Z,19.59
2022-10-17T05:58:22.012Z,19.93
2022-10-17T06:00:59.548Z,20.15
2022-10-17T06:03:28.848Z,20.18
2022-10-17T06:05:57.571Z,20.68
2022-10-17T06:08:26.418Z,20.70
2022-10-17T06:11:03.850Z,20.06
2022-10-17T06:13:35.972Z,19.59
2022-10-17T06:16:16.384Z,19.31
2022-10-17T06:18:49.940Z,19.50
2022-10-17T06:21:22.415Z,19.59
2022-10-17T06:23:56.146Z,19.33
2022-10-17T06:26:32.008Z,19.48
2022-10-17T06:29:00.380Z,19.67
2022-10-17T06:31:34.390Z,19.69
2022-10-17T06:34:02.362Z,19.69
2022-10-17T06:36:30.854Z,19.85
2022-10-17T06:38:58.882Z,20.28
2022-10-17T06:41:35.656Z,20.90
2022-10-17T06:44:11.029Z,20.93
2022-10-17T06:47:20.661Z,21.07
2022-10-17T06:49:50.197Z,20.97
2022-10-17T06:52:32.039Z,21.08
2022-10-17T06:55:24.352Z,21.23
2022-10-17T06:58:10.788Z,21.25
2022-10-17T07:00:55.422Z,21.54
2022-10-17T07:03:29.941Z,21.36
2022-10-17T07:05:58.647Z,21.64
2022-10-17T07:08:27.368Z,21.78
2022-10-17T07:10:56.092Z,21.68
2022-10-17T07:13:25.955Z,21.92
2022-10-17T07:18:27.736Z,22.03
2022-10-17T07:20:56.405Z,22.27
2022-10-17T07:23:25.188Z,22.50
2022-10-17T07:25:53.558Z,22.73
2022-10-17T07:28:21.827Z,22.81
2022-10-17T07:30:52.086Z,22.76
2022-10-17T07:33:22.901Z,22.97
2022-10-17T07:35:53.297Z,23.09
2022-10-17T07:38:21.208Z,22.92
2022-10-17T07:40:55.565Z,23.43
2022-10-17T07:43:24.736Z,23.72
2022-10-17T07:45:55.636Z,23.83
2022-10-17T07:48:25.299Z,23.83
2022-10-17T07:50:54.983Z,22.33
2022-10-17T07:53:23.597Z,21.55
2022-10-17T07:55:52.490Z,21.58
2022-10-17T07:58:20.446Z,21.49
2022-10-17T08:00:50.987Z,21.41
2022-10-17T08:03:19.069Z,21.74
2022-10-17T08:05:48.119Z,21.70
2022-10-17T08:08:20.520Z,21.63
2022-10-17T08:10:48.580Z,21.49
2022-10-17T08:13:17.664Z,21.73
2022-10-17T08:15:48.017Z,21.55
2022-10-17T08:18:16.305Z,21.79
2022-10-17T08:20:44.339Z,21.96
2022-10-17T08:23:12.312Z,22.00
2022-10-17T08:25:41.709Z,21.94
2022-10-17T08:28:09.617Z,21.86
2022-10-17T08:30:37.573Z,22.10
2022-10-17T08:33:05.657Z,22.03
2022-10-17T08:35:33.628Z,22.34
2022-10-17T08:38:02.957Z,22.48
2022-10-17T08:40:33.850Z,22.89
2022-10-17T08:43:17.581Z,22.49
2022-10-17T08:45:52.202Z,22.95
2022-10-17T08:48:23.212Z,23.03
2022-10-17T08:50:58.284Z,23.14
2022-10-17T08:53:34.036Z,23.02
2022-10-17T08:56:11.937Z,22.88
2022-10-17T08:58:49.393Z,22.88
2022-10-17T09:01:35.277Z,22.65
2022-10-17T09:04:38.175Z,23.07
2022-10-17T09:07:14.515Z,23.11
2022-10-17T09:09:52.194Z,23.05
2022-10-17T09:12:28.559Z,23.28
2022-10-17T09:15:11.887Z,23.37
2022-10-17T09:17:50.589Z,23.15
2022-10-17T09:20:24.600Z,23.35
2022-10-17T09:22:58.207Z,23.52
2022-10-17T09:25:27.387Z,23.87
2022-10-17T09:28:00.654Z,23.55
2022-10-17T09:30:45.023Z,23.26
2022-10-17T09:33:28.078Z,23.48
2022-10-17T09:36:07.833Z,23.60
2022-10-17T09:38:41.764Z,23.80
2022-10-17T09:41:44.384Z,24.18
2022-10-17T09:44:17.601Z,24.30
2022-10-17T09:46:59.190Z,24.58
2022-10-17T09:49:32.917Z,24.45
2022-10-17T09:52:02.117Z,24.80
2022-10-17T09:54:45.200Z,25.11
2022-10-17T09:57:14.610Z,25.00
2022-10-17T09:59:45.383Z,24.95
2022-10-17T10:02:22.605Z,24.54
2022-10-17T10:05:07.514Z,24.54
2022-10-17T10:07:38.901Z,24.75
2022-10-17T10:10:16.911Z,24.78
2022-10-17T10:13:04.815Z,24.64
2022-10-17T10:15:36.137Z,24.92
2022-10-17T10:18:32.919Z,24.83
2022-10-17T10:21:10.698Z,24.95
2022-10-17T10:23:41.116Z,25.06
2022-10-17T10:26:28.756Z,25.24
2022-10-17T10:29:01.328Z,25.46
2022-10-17T10:31:40.927Z,25.29
2022-10-17T10:34:23.265Z,25.58
2022-10-17T10:37:02.275Z,26.06
2022-10-17T10:39:45.681Z,25.66
2022-10-17T10:42:30.290Z,25.63
2022-10-17T10:45:03.401Z,25.84
2022-10-17T10:47:32.943Z,25.85
2022-10-17T10:50:31.997Z,25.89
2022-10-17T10:53:14.732Z,25.77
2022-10-17T10:55:49.727Z,25.84
2022-10-17T10:58:28.717Z,25.93
2022-10-17T11:01:00.441Z,26.12
2022-10-17T11:03:36.921Z,26.23
2022-10-17T11:06:15.677Z,26.11
2022-10-17T11:08:54.475Z,26.18
2022-10-17T11:11:33.731Z,26.08
2022-10-17T11:14:09.642Z,26.35
2022-10-17T11:16:47.264Z,26.28
2022-10-17T11:19:22.573Z,26.24
2022-10-17T11:22:04.191Z,26.40
2022-10-17T11:24:42.508Z,26.32
2022-10-17T11:27:11.072Z,25.86
2022-10-17T11:29:42.109Z,26.14
2022-10-17T11:32:15.020Z,26.16
2022-10-17T11:34:47.593Z,26.05
2022-10-17T11:37:19.205Z,26.47
2022-10-17T11:39:53.148Z,26.74
2022-10-17T11:42:27.611Z,26.51
2022-10-17T11:45:01.785Z,26.57
2022-10-17T11:47:40.300Z,26.14
2022-10-17T11:53:15.665Z,26.40
2022-10-17T11:55:53.712Z,26.51
2022-10-17T11:58:34.254Z,26.67
2022-10-17T12:01:14.551Z,26.80
2022-10-17T12:04:03.820Z,26.74
2022-10-17T12:07:01.932Z,26.46
2022-10-17T12:09:40.969Z,26.37
2022-10-17T12:12:15.346Z,26.55
2022-10-17T12:14:45.813Z,27.02
2022-10-17T12:17:32.961Z,26.94
2022-10-17T12:20:35.600Z,27.06
2022-10-17T12:23:27.274Z,26.77
2022-10-17T12:26:03.175Z,27.24
2022-10-17T12:28:44.856Z,27.39
2022-10-17T12:31:29.567Z,27.35
2022-10-17T12:34:03.883Z,27.20
2022-10-17T12:36:42.221Z,27.26
2022-10-17T12:39:49.567Z,27.30
2022-10-17T12:42:51.842Z,27.57
2022-10-17T12:45:56.399Z,27.41
2022-10-17T12:49:02.652Z,27.68
2022-10-17T12:51:51.594Z,27.91
2022-10-17T12:54:19.863Z,27.55
2022-10-17T12:56:52.217Z,27.88
2022-10-17T12:59:25.414Z,27.81
2022-10-17T13:02:00.162Z,27.74
2022-10-17T13:04:30.087Z,27.96
2022-10-17T13:07:01.129Z,28.02
2022-10-17T13:09:32.272Z,27.73
2022-10-17T13:12:03.118Z,28.08
2022-10-17T13:14:33.023Z,27.95
2022-10-17T13:17:04.544Z,27.71
2022-10-17T13:19:42.880Z,27.66
2022-10-17T13:22:16.705Z,27.49
2022-10-17T13:24:45.216Z,27.42
2022-10-17T13:27:26.208Z,27.16
2022-10-17T13:29:56.259Z,27.03
2022-10-17T13:32:27.544Z,27.31
2022-10-17T13:35:10.181Z,27.29
2022-10-17T13:37:44.766Z,27.16
2022-10-17T13:40:40.721Z,27.03
2022-10-17T13:43:16.300Z,27.00
2022-10-17T13:45:49.493Z,27.23
2022-10-17T13:48:25.828Z,26.90
2022-10-17T13:50:59.149Z,26.72
2022-10-17T13:53:32.873Z,26.75
2022-10-17T13:56:26.514Z,26.13
2022-10-17T13:58:56.145Z,26.06
2022-10-17T14:01:26.464Z,26.04
2022-10-17T14:04:09.456Z,26.24
2022-10-17T14:06:47.594Z,26.36
2022-10-17T14:09:23.218Z,26.52
2022-10-17T14:12:01.169Z,26.52
2022-10-17T14:14:46.042Z,26.28
2022-10-17T14:17:24.991Z,26.21
2022-10-17T14:20:16.473Z,26.24
2022-10-17T14:22:50.641Z,26.38
2022-10-17T14:25:31.957Z,26.21
2022-10-17T14:28:08.179Z,26.24
2022-10-17T14:30:55.818Z,26.26
2022-10-17T14:33:27.812Z,26.55
2022-10-17T14:36:00.021Z,26.35
2022-10-17T14:38:30.210Z,26.53
2022-10-17T14:41:29.654Z,26.45
2022-10-17T14:43:55.568Z,26.28
2022-10-17T14:46:27.193Z,26.40
2022-10-17T14:48:58.376Z,26.33
2022-10-17T14:51:32.462Z,26.24
2022-10-17T14:54:21.636Z,25.94
2022-10-17T14:56:52.844Z,25.86
2022-10-17T14:59:51.672Z,25.77
2022-10-17T15:02:12.458Z,25.79
2022-10-17T15:04:41.148Z,25.51
2022-10-17T15:07:14.228Z,25.66
2022-10-17T15:09:42.541Z,25.53
2022-10-17T15:12:15.919Z,25.51
2022-10-17T15:14:44.102Z,25.59
2022-10-17T15:17:16.231Z,25.62
2022-10-17T15:19:44.190Z,25.49
2022-10-17T15:22:16.411Z,25.67
2022-10-17T15:24:46.165Z,25.53
2022-10-17T15:27:18.512Z,25.44
2022-10-17T15:29:47.499Z,25.75
2022-10-17T15:32:15.713Z,25.82
2022-10-17T15:34:45.815Z,25.90
2022-10-17T15:37:22.507Z,25.78
2022-10-17T15:39:53.602Z,25.51
2022-10-17T15:42:23.241Z,25.53
2022-10-17T15:44:53.362Z,25.55
2022-10-17T15:47:27.168Z,25.50
2022-10-17T15:49:55.989Z,25.45
2022-10-17T15:52:26.051Z,25.19
2022-10-17T15:54:56.471Z,25.25
2022-10-17T15:57:30.739Z,25.21
2022-10-17T16:00:00.615Z,25.23
2022-10-17T16:02:29.198Z,25.31
2022-10-17T16:04:57.316Z,25.37
2022-10-17T16:07:29.348Z,24.85
2022-10-17T16:09:58.301Z,24.99
2022-10-17T16:12:31.339Z,25.41
2022-10-17T16:14:59.459Z,25.45
2022-10-17T16:17:27.744Z,25.53
2022-10-17T16:19:55.819Z,25.60
2022-10-17T16:22:32.412Z,25.58
2022-10-17T16:25:09.347Z,25.49
2022-10-17T16:27:39.131Z,25.53
2022-10-17T16:30:09.622Z,25.46
2022-10-17T16:32:37.627Z,25.22
2022-10-17T16:35:07.582Z,25.17
2022-10-17T16:37:37.751Z,25.26
2022-10-17T16:40:08.019Z,25.49
2022-10-17T16:42:36.301Z,25.22
2022-10-17T16:45:04.985Z,25.19
2022-10-17T16:47:33.001Z,25.37
2022-10-17T16:50:01.302Z,25.54
2022-10-17T16:52:33.290Z,25.45
2022-10-17T16:55:02.845Z,24.98
2022-10-17T16:57:32.324Z,24.54
2022-10-17T17:00:03.781Z,24.62
2022-10-17T17:02:32.084Z,24.65
2022-10-17T17:05:00.204Z,25.12
2022-10-17T17:07:30.458Z,25.00
2022-10-17T17:09:58.667Z,24.57
2022-10-17T17:12:28.511Z,24.61
2022-10-17T17:14:57.574Z,24.70
2022-10-17T17:17:30.812Z,24.68
2022-10-17T17:20:06.380Z,24.63
2022-10-17T17:22:36.541Z,24.85
2022-10-17T17:25:04.892Z,24.38
2022-10-17T17:27:36.752Z,24.21
2022-10-17T17:30:07.923Z,24.37
2022-10-17T17:32:36.145Z,24.48
2022-10-17T17:35:07.315Z,24.66
2022-10-17T17:37:35.662Z,24.61
2022-10-17T17:40:05.931Z,24.48
2022-10-17T17:42:35.789Z,24.56
2022-10-17T17:45:04.254Z,24.35
2022-10-17T17:47:32.701Z,24.37
2022-10-17T17:50:00.864Z,24.34
2022-10-17T17:52:29.877Z,24.73
2022-10-17T17:54:58.130Z,24.67
2022-10-17T17:57:26.266Z,24.29
2022-10-17T17:59:56.349Z,24.07
2022-10-17T18:02:24.400Z,24.70
2022-10-17T18:04:53.556Z,24.80
2022-10-17T18:07:21.839Z,24.39
2022-10-17T18:09:53.091Z,24.81
2022-10-17T18:12:21.343Z,24.98
2022-10-17T18:14:49.436Z,24.93
2022-10-17T18:17:18.902Z,25.13
2022-10-17T18:19:46.830Z,24.90
2022-10-17T18:31:12.261Z,24.42
2022-10-17T18:33:44.613Z,24.34
2022-10-17T18:36:14.427Z,24.47
2022-10-17T18:38:43.824Z,24.85
2022-10-17T18:41:13.818Z,24.88
2022-10-17T18:43:44.248Z,25.02
2022-10-17T18:46:14.927Z,25.00
2022-10-17T18:48:46.231Z,25.08
2022-10-17T18:51:16.093Z,25.18
2022-10-17T18:53:45.401Z,25.09
2022-10-17T18:56:14.440Z,24.85
2022-10-17T18:58:43.244Z,25.16
2022-10-17T19:01:15.364Z,24.80
2022-10-17T19:03:43.748Z,24.24
2022-10-17T19:06:15.141Z,24.44
2022-10-17T19:08:44.150Z,24.91
2022-10-17T19:11:14.443Z,24.85
2022-10-17T19:13:43.123Z,24.35
2022-10-17T19:16:13.153Z,24.57
2022-10-17T19:18:41.365Z,24.81
2022-10-17T19:21:11.320Z,24.92
2022-10-17T19:23:40.779Z,24.48
2022-10-17T19:26:11.456Z,24.52
2022-10-17T19:28:41.690Z,24.82
2022-10-17T19:31:14.079Z,23.95
2022-10-17T19:33:45.020Z,25.01
2022-10-17T19:36:16.560Z,24.90
2022-10-17T19:38:46.351Z,24.07
2022-10-17T19:41:16.704Z,24.14
2022-10-17T19:43:45.868Z,23.98
2022-10-17T19:46:15.387Z,24.48
2022-10-17T19:48:43.794Z,24.48
2022-10-17T19:51:13.847Z,24.89
2022-10-17T19:53:44.440Z,24.86
2022-10-17T19:56:18.504Z,24.42
2022-10-17T19:58:46.772Z,24.78
2022-10-17T20:01:16.795Z,24.50
2022-10-17T20:03:45.078Z,24.09
2022-10-17T20:06:13.631Z,24.10
2022-10-17T20:08:42.713Z,24.43
2022-10-17T20:11:15.300Z,24.38
2022-10-17T20:13:44.829Z,23.83
2022-10-17T20:16:18.263Z,24.54
2022-10-17T20:18:46.895Z,24.37
2022-10-17T20:21:20.679Z,24.48
2022-10-17T20:23:49.008Z,24.60
2022-10-17T20:29:15.018Z,24.61
2022-10-17T20:31:44.963Z,24.35
2022-10-17T20:34:15.359Z,24.43
2022-10-17T20:36:43.410Z,24.55
2022-10-17T20:39:13.087Z,24.41
2022-10-17T20:41:42.738Z,24.53
2022-10-17T20:44:11.147Z,24.05
2022-10-17T20:46:45.309Z,23.81
2022-10-17T20:49:22.817Z,23.64
2022-10-17T20:51:51.167Z,23.41
2022-10-17T20:54:19.092Z,23.33
2022-10-17T20:56:48.769Z,23.23
2022-10-17T20:59:18.484Z,23.70
2022-10-17T21:01:47.380Z,23.78
2022-10-17T21:07:04.633Z,24.17
2022-10-17T21:09:32.694Z,24.33
2022-10-17T21:12:05.168Z,24.52
2022-10-17T21:14:36.372Z,24.20
2022-10-17T21:17:05.453Z,24.44
2022-10-17T21:19:33.647Z,24.11
2022-10-17T21:22:01.797Z,24.33
2022-10-17T21:24:30.289Z,23.92
2022-10-17T21:26:58.859Z,23.74
2022-10-17T21:29:28.445Z,23.34
2022-10-17T21:31:56.459Z,23.14
2022-10-17T21:34:25.599Z,23.57
2022-10-17T21:36:53.784Z,23.27
2022-10-17T21:39:24.162Z,23.28
2022-10-17T21:41:53.163Z,22.93
2022-10-17T21:44:25.031Z,23.03
2022-10-17T21:46:55.618Z,23.26
2022-10-17T21:49:26.514Z,23.09
2022-10-17T21:51:55.227Z,23.33
2022-10-17T21:54:24.185Z,23.26
2022-10-17T21:56:53.493Z,23.19
2022-10-17T21:59:21.668Z,23.85
2022-10-17T22:01:49.756Z,24.11
2022-10-17T22:04:20.430Z,24.28
2022-10-17T22:06:52.391Z,23.64
2022-10-17T22:09:22.304Z,23.37
2022-10-17T22:11:51.662Z,23.68
2022-10-17T22:14:21.159Z,23.21
2022-10-17T22:16:50.049Z,23.66
2022-10-17T22:19:22.832Z,23.71
2022-10-17T22:21:51.502Z,23.24
2022-10-17T22:26:49.624Z,23.96
2022-10-17T22:29:18.123Z,23.75
2022-10-17T22:31:46.109Z,23.86
2022-10-17T22:34:15.744Z,24.06
2022-10-17T22:36:45.305Z,23.54
2022-10-17T22:39:13.197Z,23.51
2022-10-17T22:41:41.106Z,23.81
2022-10-17T22:44:09.413Z,23.86
2022-10-17T22:46:37.356Z,24.20
2022-10-17T22:49:05.590Z,24.28
2022-10-17T22:51:33.494Z,24.19
2022-10-17T22:54:02.815Z,24.03
2022-10-17T22:56:30.694Z,23.58
2022-10-17T22:58:58.580Z,23.39
2022-10-17T23:01:27.260Z,23.45
2022-10-17T23:03:55.293Z,23.60
2022-10-17T23:06:23.614Z,24.07
2022-10-17T23:08:52.245Z,23.62
2022-10-17T23:11:22.218Z,23.80
2022-10-17T23:13:50.190Z,24.01
2022-10-17T23:16:18.356Z,23.91
2022-10-17T23:18:46.694Z,23.89
2022-10-17T23:21:14.788Z,23.78
2022-10-17T23:23:42.732Z,24.04
2022-10-17T23:26:15.646Z,23.82
2022-10-17T23:28:44.917Z,23.60
2022-10-17T23:31:15.156Z,23.62
2022-10-17T23:33:44.899Z,24.04
2022-10-17T23:36:13.722Z,24.07
2022-10-17T23:38:43.572Z,24.07
2022-10-17T23:41:12.071Z,24.28
2022-10-17T23:43:40.422Z,24.41
2022-10-17T23:46:10.383Z,24.38
2022-10-17T23:48:38.712Z,24.61
2022-10-17T23:51:07.540Z,24.32
2022-10-17T23:53:35.772Z,23.79
2022-10-17T23:56:03.613Z,23.78
2022-10-17T23:58:31.914Z,23.72
